createdAt,value
2024-01-14T04:30:12.099Z,99005.83
2024-01-14T05:02:26.901Z,98997.84
2024-01-14T05:05:00.741Z,98975.22
2024-01-14T05:07:28.566Z,98971.09
2024-01-14T05:09:56.292Z,98971.75
2024-01-14T05:12:25.087Z,98969.55
2024-01-14T05:14:53.116Z,98966.00
2024-01-14T05:17:29.315Z,98976.62
2024-01-14T05:37:11.940Z,98968.39
2024-01-14T05:39:40.169Z,98976.79
2024-01-14T05:42:08.242Z,98970.25
2024-01-14T05:44:36.538Z,98973.58
2024-01-14T05:47:05.384Z,98980.70
2024-01-14T05:49:33.283Z,98972.42
2024-01-14T05:52:02.522Z,98976.74
2024-01-14T05:54:30.688Z,98976.75
2024-01-14T05:56:59.306Z,98974.34
2024-01-14T05:59:27.297Z,98985.90
2024-01-14T06:01:57.074Z,98969.89
2024-01-14T06:04:25.146Z,98970.96
2024-01-14T10:33:37.091Z,99003.10
2024-01-14T10:36:09.768Z,98994.33
2024-01-14T10:38:38.847Z,98993.61
2024-01-14T11:22:32.318Z,98949.29
2024-01-14T14:17:13.283Z,98896.84
2024-01-14T14:19:42.455Z,98898.18
2024-01-14T17:26:24.496Z,98745.59
2024-01-14T17:28:52.445Z,98744.66
2024-01-14T17:31:20.659Z,98747.71
2024-01-14T17:33:49.642Z,98743.08
2024-01-14T17:36:18.801Z,98740.98
2024-01-14T17:38:50.070Z,98734.23
2024-01-14T17:41:18.999Z,98729.95
2024-01-14T17:43:47.429Z,98732.19
2024-01-14T17:46:19.418Z,98726.86
2024-01-14T17:48:50.689Z,98719.83
2024-01-14T17:51:22.447Z,98714.93
2024-01-14T17:53:52.399Z,98717.64
2024-01-14T17:56:21.575Z,98708.81
2024-01-14T17:58:49.782Z,98699.34
2024-01-14T18:01:18.363Z,98693.88
2024-01-14T18:03:46.679Z,98690.11
2024-01-14T18:06:15.572Z,98691.80
2024-01-14T18:08:44.403Z,98685.71
2024-01-14T18:11:12.713Z,98681.17
2024-01-14T18:13:40.643Z,98684.45
2024-01-14T18:16:08.513Z,98677.73
2024-01-14T18:18:39.674Z,98677.67
2024-01-14T18:21:14.030Z,98677.46
2024-01-14T18:23:42.361Z,98677.23
2024-01-14T18:26:10.371Z,98668.45
2024-01-14T18:28:38.111Z,98667.67
2024-01-14T18:31:06.455Z,98666.29
2024-01-14T18:33:34.765Z,98666.08
2024-01-14T18:36:02.999Z,98663.61
2024-01-14T18:38:31.258Z,98662.91
2024-01-14T18:40:59.235Z,98658.04
2024-01-14T18:43:27.357Z,98657.51
2024-01-14T18:45:55.275Z,98649.21
2024-01-14T18:48:23.684Z,98654.21
2024-01-14T18:50:53.031Z,98650.84
2024-01-14T18:53:20.855Z,98651.98
2024-01-14T18:55:49.653Z,98649.05
2024-01-14T18:58:19.641Z,98643.98
2024-01-14T19:00:47.571Z,98644.11
2024-01-14T19:03:16.266Z,98638.74
2024-01-14T19:05:44.354Z,98636.94
2024-01-14T19:08:15.256Z,98634.95
2024-01-14T19:10:43.194Z,98635.80
2024-01-14T19:13:11.107Z,98628.78
2024-01-14T19:15:39.593Z,98627.17
2024-01-14T19:18:07.666Z,98612.56
2024-01-14T19:20:35.559Z,98614.19
2024-01-14T19:23:03.446Z,98611.81
2024-01-14T19:25:31.209Z,98614.73
2024-01-14T19:28:00.134Z,98617.45
2024-01-14T19:30:28.080Z,98620.08
2024-01-14T19:32:56.182Z,98614.81
2024-01-14T19:35:24.156Z,98617.39
2024-01-14T19:37:52.192Z,98610.56
2024-01-14T19:40:19.904Z,98607.42
2024-01-14T19:42:47.945Z,98603.88
2024-01-14T19:45:15.977Z,98600.66
2024-01-14T19:47:44.093Z,98593.30
2024-01-14T19:50:12.539Z,98593.73
2024-01-14T19:52:40.355Z,98593.84
2024-01-14T19:55:09.781Z,98594.05
2024-01-14T19:57:38.211Z,98585.46
2024-01-14T20:00:11.001Z,98583.05
2024-01-14T20:02:42.573Z,98579.73
2024-01-14T20:05:10.728Z,98576.20
2024-01-14T20:07:38.574Z,98576.02
2024-01-14T20:10:07.699Z,98575.49
2024-01-14T20:12:35.801Z,98573.79
2024-01-14T20:15:05.059Z,98576.84
2024-01-14T20:17:33.232Z,98567.64
2024-01-14T20:20:01.292Z,98569.86
2024-01-14T20:22:29.209Z,98564.75
2024-01-14T20:24:59.517Z,98561.16
2024-01-14T20:27:28.116Z,98557.11
2024-01-14T20:29:56.173Z,98546.41
2024-01-14T20:32:24.589Z,98535.80
2024-01-14T20:34:52.645Z,98526.15
2024-01-14T20:37:21.017Z,98524.09
2024-01-14T20:39:49.322Z,98521.58
2024-01-14T20:42:17.626Z,98522.51
2024-01-14T20:44:45.952Z,98518.88
2024-01-14T20:47:14.008Z,98517.30
2024-01-14T20:49:45.274Z,98513.95
2024-01-14T20:52:13.548Z,98507.39
2024-01-14T20:54:42.242Z,98509.25
2024-01-14T20:57:13.290Z,98509.14
2024-01-14T20:59:41.316Z,98507.14
2024-01-14T21:02:09.288Z,98501.74
2024-01-14T21:04:37.725Z,98495.12
2024-01-14T21:07:05.744Z,98495.93
2024-01-14T21:09:34.485Z,98490.31
2024-01-14T21:12:03.481Z,98491.00
2024-01-14T21:14:32.206Z,98494.05
2024-01-14T21:17:02.424Z,98491.91
2024-01-14T21:19:30.644Z,98494.21
2024-01-14T21:21:58.594Z,98489.95
2024-01-14T21:24:26.742Z,98484.10
2024-01-14T21:26:55.020Z,98481.34
2024-01-14T21:29:23.049Z,98476.02
2024-01-14T21:31:51.053Z,98468.95
2024-01-14T21:34:19.746Z,98464.85
2024-01-14T21:36:47.668Z,98461.42
2024-01-14T21:39:15.474Z,98463.19
2024-01-14T21:41:43.645Z,98465.84
2024-01-14T21:44:11.383Z,98467.52
2024-01-14T21:46:40.760Z,98462.92
2024-01-14T21:49:09.160Z,98453.88
2024-01-14T21:51:41.540Z,98452.59
2024-01-14T21:54:09.572Z,98445.81
2024-01-14T21:56:38.385Z,98442.47
2024-01-14T21:59:07.014Z,98443.40
2024-01-14T22:01:35.015Z,98439.38
2024-01-14T22:04:03.237Z,98434.76
2024-01-14T22:06:35.451Z,98435.41
2024-01-14T22:09:03.274Z,98432.48
2024-01-14T22:11:31.341Z,98429.13
2024-01-14T22:14:00.014Z,98433.23
2024-01-14T22:16:27.769Z,98431.93
2024-01-14T22:18:55.749Z,98429.95
2024-01-14T22:21:34.791Z,98429.23
2024-01-14T22:24:03.693Z,98430.34
2024-01-14T22:26:31.937Z,98427.16
2024-01-14T22:29:00.251Z,98424.80
2024-01-14T22:31:28.850Z,98425.21
2024-01-14T22:33:57.188Z,98419.44
2024-01-14T22:36:25.534Z,98410.55
2024-01-14T22:38:53.365Z,98404.25
2024-01-14T22:41:21.079Z,98397.72
2024-01-14T22:43:49.072Z,98394.28
2024-01-14T22:46:21.215Z,98394.77
2024-01-14T22:48:49.124Z,98389.94
2024-01-14T22:51:17.211Z,98387.16
2024-01-14T22:53:47.732Z,98381.51
2024-01-14T22:56:15.518Z,98374.94
2024-01-14T22:58:44.267Z,98369.08
2024-01-14T23:01:15.096Z,98367.98
2024-01-14T23:03:44.152Z,98363.80
2024-01-14T23:06:13.249Z,98364.41
2024-01-14T23:08:41.609Z,98359.91
2024-01-14T23:11:09.575Z,98357.00
2024-01-14T23:13:39.056Z,98358.38
2024-01-14T23:16:07.787Z,98356.49
2024-01-14T23:18:35.894Z,98350.14
2024-01-14T23:21:04.492Z,98345.13
2024-01-14T23:23:33.142Z,98343.09
2024-01-14T23:26:00.940Z,98338.30
2024-01-14T23:28:28.879Z,98343.34
2024-01-14T23:30:58.081Z,98329.77
2024-01-14T23:33:26.344Z,98325.00
2024-01-14T23:35:54.449Z,98314.83
2024-01-14T23:38:22.580Z,98308.35
2024-01-14T23:40:50.319Z,98305.99
2024-01-14T23:43:18.547Z,98305.78
2024-01-14T23:45:46.810Z,98301.75
2024-01-14T23:48:15.330Z,98300.10
2024-01-14T23:50:43.664Z,98299.79
2024-01-14T23:53:11.573Z,98296.16
2024-01-14T23:55:39.336Z,98298.38
2024-01-14T23:58:09.092Z,98290.66
